Time;durP1;ratioP1;P1;durP2;ratioP2;P2;SDS_P1;SDS_P2;PMS_P1;PMS_P2;Temp;Humidity;BMP_temperature;BMP_pressure;BME280_temperature;BME280_humidity;BME280_pressure;Samples;Min_cycle;Max_cycle;Signal;HPM_P1;HPM_P2
2022/01/06 00:01:06;;;;;;;1.37;1.37;;;5.20;94.30;;;;;;5063351;28;20164;-80
2022/01/06 00:03:32;;;;;;;1.37;1.20;;;5.20;94.30;;;;;;5058615;28;20534;-81
2022/01/06 00:06:02;;;;;;;0.90;0.90;;;5.30;94.70;;;;;;5057481;28;20172;-81
2022/01/06 00:08:28;;;;;;;1.30;1.20;;;5.30;92.40;;;;;;5056902;28;20179;-82
2022/01/06 00:10:54;;;;;;;1.23;1.10;;;5.30;92.30;;;;;;5058445;28;20177;-81
2022/01/06 00:13:27;;;;;;;1.13;1.13;;;5.20;92.60;;;;;;5059206;28;20203;-83
2022/01/06 00:23:52;;;;;;;1.60;1.10;;;5.20;92.60;;;;;;5059617;28;20169;-85
2022/01/06 00:26:18;;;;;;;1.00;0.90;;;5.20;93.20;;;;;;5058752;28;20175;-84
2022/01/06 00:28:43;;;;;;;1.97;1.13;;;5.20;92.60;;;;;;5057802;28;20522;-82
2022/01/06 00:31:09;;;;;;;1.27;1.17;;;5.20;92.10;;;;;;5074626;28;20259;-86
2022/01/06 00:33:35;;;;;;;1.57;1.40;;;5.20;92.60;;;;;;5074808;28;20237;-81
2022/01/06 00:36:01;;;;;;;1.80;1.70;;;5.10;93.30;;;;;;5041829;28;20275;-84
2022/01/06 00:38:27;;;;;;;1.17;1.17;;;5.10;93.20;;;;;;5054120;28;20694;-87
2022/01/06 00:40:54;;;;;;;1.63;1.53;;;5.20;92.80;;;;;;5054952;28;20171;-81
2022/01/06 00:43:20;;;;;;;1.63;1.10;;;5.30;92.80;;;;;;5037103;28;20589;-87
2022/01/06 00:45:46;;;;;;;2.43;1.30;;;5.20;92.90;;;;;;5054234;28;20228;-84
2022/01/06 00:48:12;;;;;;;1.40;1.30;;;5.20;92.60;;;;;;5055458;28;20572;-87
2022/01/06 00:50:40;;;;;;;2.73;1.17;;;5.20;93.50;;;;;;5036978;28;20267;-82
2022/01/06 00:53:06;;;;;;;1.07;1.07;;;5.20;94.20;;;;;;5053573;28;20206;-87
2022/01/06 00:55:33;;;;;;;1.20;1.20;;;5.30;94.90;;;;;;5053611;28;20175;-85
2022/01/06 00:58:00;;;;;;;1.93;1.20;;;5.20;95.40;;;;;;5052991;28;20185;-86
2022/01/06 01:00:29;;;;;;;1.33;1.23;;;5.20;95.50;;;;;;5052898;28;20160;-83
2022/01/06 01:02:55;;;;;;;1.43;1.33;;;5.10;96.20;;;;;;5053622;28;20185;-92
2022/01/06 01:05:22;;;;;;;2.23;1.23;;;5.00;96.40;;;;;;5054211;28;20173;-93
2022/01/06 01:07:48;;;;;;;1.70;1.60;;;4.90;96.80;;;;;;5037089;28;20182;-83
2022/01/06 01:10:13;;;;;;;1.33;1.33;;;4.90;97.30;;;;;;5054108;28;20234;-91
2022/01/06 01:12:42;;;;;;;1.20;1.20;;;4.90;97.30;;;;;;5055204;28;20294;-91
2022/01/06 01:15:09;;;;;;;1.20;1.20;;;4.90;97.60;;;;;;5055741;28;20167;-92
2022/01/06 01:17:35;;;;;;;1.33;1.30;;;4.90;97.00;;;;;;5053433;28;20202;-92
2022/01/06 01:20:03;;;;;;;1.20;1.20;;;4.90;97.90;;;;;;5055022;28;20265;-88
2022/01/06 01:22:28;;;;;;;1.37;1.27;;;4.90;97.80;;;;;;5044977;28;20189;-92
2022/01/06 01:24:54;;;;;;;2.23;1.57;;;4.90;97.50;;;;;;5070249;28;20641;-83
2022/01/06 01:27:22;;;;;;;3.50;1.20;;;5.00;96.80;;;;;;5055256;28;20179;-84
2022/01/06 01:30:02;;;;;;;1.40;1.40;;;4.90;97.30;;;;;;5052977;28;20185;-84
2022/01/06 01:32:33;;;;;;;4.00;1.23;;;4.90;97.20;;;;;;5052913;28;20228;-85
2022/01/06 01:35:01;;;;;;;1.40;1.30;;;4.90;96.40;;;;;;5053302;28;20156;-82
2022/01/06 01:37:28;;;;;;;0.83;0.83;;;4.90;95.60;;;;;;5034444;28;20182;-82
2022/01/06 01:39:54;;;;;;;1.60;0.80;;;4.90;95.30;;;;;;5053118;28;20187;-82
2022/01/06 01:42:20;;;;;;;1.40;1.30;;;4.90;96.40;;;;;;5053166;28;20194;-89
2022/01/06 01:44:48;;;;;;;1.17;1.10;;;4.80;95.80;;;;;;5053487;28;20163;-91
2022/01/06 01:47:15;;;;;;;1.00;1.00;;;4.90;96.00;;;;;;5053456;28;20172;-90
2022/01/06 01:49:56;;;;;;;1.33;1.33;;;4.90;95.90;;;;;;5035315;28;20172;-89
2022/01/06 01:52:22;;;;;;;1.00;1.00;;;4.90;96.60;;;;;;5035835;28;20212;-89
2022/01/06 01:54:48;;;;;;;1.90;1.07;;;4.90;96.50;;;;;;5053505;28;20170;-87
2022/01/06 01:57:14;;;;;;;1.50;1.40;;;4.90;96.80;;;;;;5053186;28;20186;-80
2022/01/06 01:59:39;;;;;;;1.13;1.10;;;4.90;97.50;;;;;;5052763;28;20179;-81
2022/01/06 02:02:05;;;;;;;1.80;1.70;;;4.90;97.30;;;;;;5052824;28;20176;-81
2022/01/06 02:04:31;;;;;;;1.67;1.63;;;4.80;97.40;;;;;;5052755;28;20644;-81
2022/01/06 02:06:57;;;;;;;1.60;1.60;;;4.80;97.80;;;;;;5052974;28;20175;-81
2022/01/06 02:09:22;;;;;;;1.70;1.60;;;4.80;97.70;;;;;;5052972;28;20222;-84
2022/01/06 02:11:48;;;;;;;1.83;1.63;;;4.70;97.40;;;;;;5054893;28;20229;-83
2022/01/06 02:14:14;;;;;;;1.67;1.60;;;4.70;98.00;;;;;;5056978;28;20174;-83
2022/01/06 02:16:40;;;;;;;1.60;1.50;;;4.70;98.10;;;;;;5057356;28;20204;-85
2022/01/06 02:19:05;;;;;;;1.40;1.40;;;4.70;98.10;;;;;;5060828;28;20174;-85
2022/01/06 02:21:31;;;;;;;1.50;1.40;;;4.70;97.90;;;;;;5058203;28;20183;-85
2022/01/06 02:23:57;;;;;;;1.77;1.67;;;4.70;97.80;;;;;;5045571;28;20194;-88
2022/01/06 02:26:23;;;;;;;3.27;1.50;;;4.80;97.70;;;;;;5076408;28;20179;-81
2022/01/06 02:28:48;;;;;;;1.70;1.60;;;4.70;97.70;;;;;;5071075;28;20175;-89
2022/01/06 02:31:14;;;;;;;1.60;1.50;;;4.80;97.60;;;;;;5058854;28;20216;-88
2022/01/06 02:33:40;;;;;;;1.30;1.30;;;4.70;98.30;;;;;;5058501;28;20239;-88
2022/01/06 02:36:06;;;;;;;1.20;1.20;;;4.60;98.00;;;;;;5059551;28;20174;-91
2022/01/06 02:38:33;;;;;;;1.80;1.70;;;4.60;98.00;;;;;;5058608;28;20194;-88
2022/01/06 02:40:59;;;;;;;1.60;1.50;;;4.70;97.70;;;;;;5058504;28;20182;-90
2022/01/06 02:43:25;;;;;;;1.73;1.50;;;4.60;98.30;;;;;;5057200;28;20177;-89
2022/01/06 02:45:51;;;;;;;1.60;1.50;;;4.60;98.20;;;;;;5056512;28;20276;-89
2022/01/06 02:48:17;;;;;;;1.40;1.40;;;4.60;98.30;;;;;;5056896;28;20612;-89
2022/01/06 02:50:49;;;;;;;1.70;1.60;;;4.60;98.00;;;;;;5038530;28;20187;-88
2022/01/06 02:53:16;;;;;;;2.03;1.93;;;4.60;98.70;;;;;;5055923;28;20236;-86
2022/01/06 02:55:50;;;;;;;1.70;1.60;;;4.60;98.40;;;;;;5039151;28;20581;-85
2022/01/06 02:58:17;;;;;;;1.80;1.70;;;4.60;98.70;;;;;;5038065;28;20185;-85
2022/01/06 03:00:44;;;;;;;1.70;1.60;;;4.60;98.90;;;;;;5055870;28;20175;-83
2022/01/06 03:03:10;;;;;;;1.30;1.30;;;4.60;98.50;;;;;;5056244;28;20180;-87
2022/01/06 03:05:36;;;;;;;1.30;1.30;;;4.60;98.20;;;;;;5056194;28;20662;-90
2022/01/06 03:08:01;;;;;;;2.20;1.37;;;4.60;98.40;;;;;;5055974;28;20226;-82
2022/01/06 03:10:27;;;;;;;1.30;1.23;;;4.60;98.10;;;;;;5055685;28;20172;-87
2022/01/06 03:12:53;;;;;;;1.43;1.33;;;4.60;98.10;;;;;;5055356;28;20208;-83
2022/01/06 03:15:21;;;;;;;1.57;1.47;;;4.50;98.60;;;;;;5055828;28;20174;-87
2022/01/06 03:17:50;;;;;;;1.20;1.20;;;4.50;99.00;;;;;;5055422;28;20181;-84
2022/01/06 03:20:18;;;;;;;1.80;1.77;;;4.60;99.70;;;;;;5058514;28;20183;-86
2022/01/06 03:22:44;;;;;;;2.13;1.77;;;4.60;99.30;;;;;;5055194;28;20176;-82
2022/01/06 03:25:12;;;;;;;2.03;1.90;;;4.50;99.60;;;;;;5056310;28;20241;-81
2022/01/06 03:27:39;;;;;;;2.17;2.07;;;4.40;99.60;;;;;;5057497;28;20177;-81
2022/01/06 03:30:09;;;;;;;2.30;2.20;;;4.30;99.90;;;;;;5039536;28;20305;-84
2022/01/06 03:32:35;;;;;;;2.20;2.10;;;4.30;99.90;;;;;;5058852;28;20231;-80
2022/01/06 03:35:01;;;;;;;2.53;2.33;;;4.30;99.90;;;;;;5057597;28;20190;-83
2022/01/06 03:37:27;;;;;;;2.00;1.90;;;4.30;99.90;;;;;;5055412;28;20201;-85
2022/01/06 03:39:53;;;;;;;2.43;2.00;;;4.20;99.90;;;;;;5055543;28;20174;-84
2022/01/06 03:42:19;;;;;;;2.10;2.00;;;4.10;99.90;;;;;;5055597;28;20167;-91
2022/01/06 03:44:44;;;;;;;2.30;2.20;;;4.20;99.90;;;;;;5056720;28;20246;-87
2022/01/06 03:47:10;;;;;;;2.20;2.10;;;4.10;99.90;;;;;;5056004;28;20206;-86
2022/01/06 03:49:36;;;;;;;1.97;1.87;;;4.00;99.90;;;;;;5055091;28;20206;-81
2022/01/06 03:52:02;;;;;;;2.40;2.20;;;4.00;99.90;;;;;;5055000;28;20232;-83
2022/01/06 03:54:28;;;;;;;2.00;1.90;;;4.10;99.90;;;;;;5054574;28;20221;-83
2022/01/06 03:56:54;;;;;;;2.37;1.90;;;4.00;99.90;;;;;;5054644;28;20178;-81
2022/01/06 03:59:19;;;;;;;2.20;2.10;;;3.90;99.90;;;;;;5054669;28;20174;-92
2022/01/06 04:01:46;;;;;;;2.27;2.17;;;4.00;99.90;;;;;;5039398;28;20589;-93
2022/01/06 04:04:13;;;;;;;2.63;2.43;;;3.90;99.90;;;;;;5038917;28;20186;-93
2022/01/06 04:06:40;;;;;;;2.30;2.20;;;3.90;99.90;;;;;;5056034;28;20642;-92
2022/01/06 04:09:06;;;;;;;2.37;2.20;;;3.90;99.90;;;;;;5055728;28;20630;-93
2022/01/06 04:11:32;;;;;;;4.57;2.93;;;3.90;99.90;;;;;;5055793;28;20174;-92
2022/01/06 04:13:58;;;;;;;2.30;2.20;;;3.90;99.90;;;;;;5055928;28;20529;-93
2022/01/06 04:16:25;;;;;;;3.53;2.40;;;3.80;99.90;;;;;;5055320;28;20258;-87
2022/01/06 04:18:51;;;;;;;3.30;2.67;;;3.80;99.90;;;;;;5068241;28;20187;-88
2022/01/06 04:21:17;;;;;;;3.07;2.87;;;3.80;99.90;;;;;;5072857;28;20171;-82
2022/01/06 04:23:43;;;;;;;2.70;2.60;;;3.80;99.90;;;;;;5048760;28;20628;-83
2022/01/06 04:26:09;;;;;;;2.70;2.57;;;3.80;99.90;;;;;;5058452;28;20176;-81
2022/01/06 04:28:36;;;;;;;3.40;2.67;;;3.70;99.90;;;;;;5037138;28;20172;-83
2022/01/06 04:31:02;;;;;;;2.97;2.77;;;3.60;99.90;;;;;;5054147;28;20177;-86
2022/01/06 04:33:27;;;;;;;2.80;2.60;;;3.70;99.90;;;;;;5054511;28;20237;-86
2022/01/06 04:35:53;;;;;;;2.73;2.53;;;3.60;99.90;;;;;;5053730;28;20690;-85
2022/01/06 04:38:21;;;;;;;2.90;2.43;;;3.60;99.90;;;;;;5053673;28;20176;-84
2022/01/06 04:40:47;;;;;;;3.97;2.97;;;3.60;99.90;;;;;;5054621;28;20183;-85
2022/01/06 04:43:13;;;;;;;2.67;2.57;;;3.60;99.90;;;;;;5054304;28;20167;-81
2022/01/06 04:45:38;;;;;;;2.70;2.50;;;3.60;99.90;;;;;;5036410;28;20533;-87
2022/01/06 04:48:04;;;;;;;2.83;2.60;;;3.60;99.90;;;;;;5054565;28;20661;-85
2022/01/06 04:50:30;;;;;;;2.83;2.63;;;3.50;99.90;;;;;;5037019;28;20278;-85
2022/01/06 04:52:57;;;;;;;2.50;2.40;;;3.50;99.90;;;;;;5040690;28;20305;-81
2022/01/06 04:55:23;;;;;;;2.83;2.63;;;3.50;99.90;;;;;;5059708;28;20182;-82
2022/01/06 04:57:48;;;;;;;2.97;2.77;;;3.50;99.90;;;;;;5057259;28;20180;-85
2022/01/06 05:00:14;;;;;;;2.60;2.40;;;3.50;99.90;;;;;;5055439;28;20202;-88
2022/01/06 05:02:40;;;;;;;2.47;2.37;;;3.50;99.90;;;;;;5036381;28;20179;-88
2022/01/06 05:05:06;;;;;;;2.50;2.40;;;3.50;99.90;;;;;;5061254;28;20186;-85
2022/01/06 05:07:32;;;;;;;2.73;2.63;;;3.50;99.90;;;;;;5063864;28;20174;-80
2022/01/06 05:09:58;;;;;;;3.47;2.40;;;3.50;99.90;;;;;;5061499;28;20221;-81
2022/01/06 05:12:24;;;;;;;2.80;2.60;;;3.60;99.90;;;;;;5059005;28;20705;-79
2022/01/06 05:14:50;;;;;;;2.60;2.40;;;3.50;99.90;;;;;;5059871;28;20512;-80
2022/01/06 05:17:15;;;;;;;3.23;2.47;;;3.50;99.90;;;;;;5058483;28;20176;-80
2022/01/06 05:19:41;;;;;;;3.60;2.40;;;3.50;99.90;;;;;;5063970;28;20177;-80
2022/01/06 05:22:07;;;;;;;2.73;2.53;;;3.50;99.90;;;;;;5062633;28;20172;-84
2022/01/06 05:24:35;;;;;;;2.80;2.60;;;3.50;99.90;;;;;;5060431;28;20267;-85
2022/01/06 05:27:01;;;;;;;2.87;2.67;;;3.50;99.90;;;;;;5068959;28;20194;-81
2022/01/06 05:29:27;;;;;;;2.63;2.53;;;3.40;99.90;;;;;;5066260;28;20172;-81
2022/01/06 05:31:52;;;;;;;2.40;2.30;;;3.50;99.90;;;;;;5073829;28;21618;-92
2022/01/06 05:34:18;;;;;;;2.80;2.60;;;3.40;99.90;;;;;;5057164;28;20190;-80
2022/01/06 05:36:44;;;;;;;2.80;2.60;;;3.40;99.90;;;;;;5062514;28;20252;-86
2022/01/06 05:39:10;;;;;;;3.43;2.50;;;3.30;99.90;;;;;;5056256;28;20183;-92
2022/01/06 05:41:35;;;;;;;2.90;2.70;;;3.30;99.90;;;;;;5038964;28;20241;-85
2022/01/06 05:44:01;;;;;;;2.67;2.47;;;3.30;99.90;;;;;;5056533;28;20180;-84
2022/01/06 05:46:27;;;;;;;2.50;2.40;;;3.30;99.90;;;;;;5054002;28;20178;-85
2022/01/06 05:48:53;;;;;;;2.70;2.50;;;3.20;99.90;;;;;;5054458;28;20186;-83
2022/01/06 05:51:19;;;;;;;3.10;2.90;;;3.20;99.90;;;;;;5052661;28;20171;-84
2022/01/06 05:53:45;;;;;;;2.60;2.47;;;3.20;99.90;;;;;;5053300;28;20218;-82
2022/01/06 05:56:10;;;;;;;2.97;2.77;;;3.20;99.90;;;;;;5053749;28;20176;-86
2022/01/06 05:58:39;;;;;;;2.80;2.60;;;3.20;99.90;;;;;;5034989;28;20180;-82
2022/01/06 06:01:06;;;;;;;2.93;2.73;;;3.10;99.90;;;;;;5036569;28;20175;-85
2022/01/06 06:03:33;;;;;;;2.67;2.57;;;3.20;99.90;;;;;;5053821;28;20550;-83
2022/01/06 06:05:58;;;;;;;3.47;2.60;;;3.30;99.90;;;;;;5052977;28;20179;-88
2022/01/06 06:08:24;;;;;;;2.90;2.70;;;3.20;99.90;;;;;;5053821;28;20179;-91
2022/01/06 06:10:49;;;;;;;2.83;2.63;;;3.20;99.90;;;;;;5053831;28;20661;-89
2022/01/06 06:13:15;;;;;;;4.40;3.30;;;3.20;99.90;;;;;;5073311;28;20207;-81
2022/01/06 06:15:41;;;;;;;3.20;3.00;;;3.10;99.90;;;;;;5073868;28;20181;-81
2022/01/06 06:18:10;;;;;;;3.20;3.00;;;3.10;99.90;;;;;;5056376;28;20241;-86
2022/01/06 06:20:36;;;;;;;3.30;3.10;;;3.00;99.90;;;;;;5053315;28;20172;-84
2022/01/06 06:23:02;;;;;;;3.70;3.43;;;3.00;99.90;;;;;;5052810;28;20286;-81
2022/01/06 06:25:28;;;;;;;3.40;3.20;;;3.00;99.90;;;;;;5053431;28;20262;-82
2022/01/06 06:27:54;;;;;;;3.20;3.10;;;3.00;99.90;;;;;;5053297;28;20255;-84
2022/01/06 06:30:20;;;;;;;3.37;3.10;;;3.00;99.90;;;;;;5053136;28;20176;-88
2022/01/06 06:32:46;;;;;;;3.37;3.03;;;3.00;99.90;;;;;;5052508;28;20257;-86
2022/01/06 06:35:12;;;;;;;3.00;2.80;;;3.00;99.90;;;;;;5052961;28;20181;-85
2022/01/06 06:37:38;;;;;;;3.03;2.83;;;3.00;99.90;;;;;;5052683;28;20172;-83
2022/01/06 06:40:06;;;;;;;3.30;2.87;;;3.00;99.90;;;;;;5056868;28;20227;-81
2022/01/06 06:42:31;;;;;;;3.20;2.90;;;3.00;99.90;;;;;;5062009;28;20594;-86
2022/01/06 06:44:57;;;;;;;3.47;3.17;;;3.00;99.90;;;;;;5053735;28;20207;-85
2022/01/06 06:47:23;;;;;;;3.33;3.03;;;3.00;99.90;;;;;;5053482;28;20171;-84
2022/01/06 06:49:49;;;;;;;3.33;3.03;;;3.00;99.90;;;;;;5053669;28;20179;-84
2022/01/06 06:52:15;;;;;;;3.00;2.80;;;2.90;99.90;;;;;;5052534;28;20287;-82
2022/01/06 06:54:41;;;;;;;3.00;2.80;;;2.80;99.90;;;;;;5052401;28;20190;-85
2022/01/06 06:57:07;;;;;;;3.20;3.00;;;2.90;99.90;;;;;;5035350;28;20841;-92
2022/01/06 06:59:33;;;;;;;3.30;3.10;;;2.90;99.90;;;;;;5040735;28;20187;-89
2022/01/06 07:01:59;;;;;;;3.63;3.33;;;2.90;99.90;;;;;;5065383;28;20178;-89
2022/01/06 07:04:24;;;;;;;3.60;3.30;;;3.00;99.90;;;;;;5072086;28;20179;-90
2022/01/06 07:06:50;;;;;;;3.90;3.30;;;3.00;99.90;;;;;;5062595;28;20681;-80
2022/01/06 07:09:16;;;;;;;3.77;3.50;;;3.00;99.90;;;;;;5060753;28;20183;-83
2022/01/06 07:11:42;;;;;;;3.63;3.33;;;2.90;99.90;;;;;;5040581;28;20210;-82
2022/01/06 07:14:08;;;;;;;3.43;3.13;;;2.90;99.90;;;;;;5057507;28;20252;-84
2022/01/06 07:16:33;;;;;;;3.80;3.50;;;2.90;99.90;;;;;;5057210;28;20172;-85
2022/01/06 07:18:59;;;;;;;4.60;3.40;;;2.90;99.90;;;;;;5055264;28;20230;-86
2022/01/06 07:21:25;;;;;;;3.40;3.20;;;2.90;99.90;;;;;;5037923;28;20186;-86
2022/01/06 07:23:52;;;;;;;3.30;3.10;;;3.00;99.90;;;;;;5055682;28;20185;-85
2022/01/06 07:26:18;;;;;;;3.33;3.03;;;3.00;99.90;;;;;;5055701;28;20214;-82
2022/01/06 07:28:44;;;;;;;3.40;3.20;;;2.90;99.90;;;;;;5055513;28;20630;-82
2022/01/06 07:31:10;;;;;;;3.57;3.37;;;3.00;99.90;;;;;;5055399;28;20180;-85
2022/01/06 07:33:36;;;;;;;4.07;3.67;;;3.00;99.90;;;;;;5054984;28;20727;-82
2022/01/06 07:36:03;;;;;;;5.40;4.00;;;2.90;99.90;;;;;;5055123;28;20260;-84
2022/01/06 07:38:28;;;;;;;4.00;3.70;;;3.00;99.90;;;;;;5054592;28;20180;-81
2022/01/06 07:40:55;;;;;;;4.23;3.93;;;3.00;99.90;;;;;;5055125;28;20757;-82
2022/01/06 07:43:21;;;;;;;4.13;3.83;;;3.00;99.90;;;;;;5054871;28;20180;-81
2022/01/06 07:45:48;;;;;;;3.87;3.40;;;3.00;99.90;;;;;;5055642;28;20163;-88
2022/01/06 07:48:17;;;;;;;4.33;3.97;;;3.00;99.90;;;;;;5055937;28;20233;-89
2022/01/06 07:50:44;;;;;;;5.50;3.63;;;3.00;99.90;;;;;;5055495;28;20168;-90
2022/01/06 07:53:10;;;;;;;3.97;3.53;;;3.00;99.90;;;;;;5039564;28;20569;-85
2022/01/06 07:55:36;;;;;;;3.70;3.40;;;3.10;99.90;;;;;;5057805;28;20180;-82
2022/01/06 07:58:03;;;;;;;4.77;4.33;;;3.20;99.90;;;;;;5054549;28;20203;-87
2022/01/06 08:00:29;;;;;;;4.37;3.93;;;3.30;99.90;;;;;;5057846;28;20173;-86
2022/01/06 08:02:54;;;;;;;3.93;3.63;;;3.30;99.90;;;;;;5062918;28;20256;-88
2022/01/06 08:05:24;;;;;;;4.20;3.90;;;3.40;99.90;;;;;;5056761;28;20214;-93
2022/01/06 08:07:50;;;;;;;4.00;3.70;;;3.40;99.90;;;;;;5042856;28;20183;-89
2022/01/06 08:10:16;;;;;;;3.90;3.60;;;3.40;99.90;;;;;;5070246;28;20202;-87
2022/01/06 08:12:42;;;;;;;3.67;3.47;;;3.30;99.90;;;;;;5069601;28;20292;-89
2022/01/06 08:15:08;;;;;;;4.00;3.70;;;3.40;99.90;;;;;;5058052;28;20214;-90
2022/01/06 08:17:36;;;;;;;4.53;4.13;;;3.40;99.90;;;;;;5055579;28;20175;-90
2022/01/06 08:20:04;;;;;;;3.90;3.60;;;3.50;99.90;;;;;;5035748;28;20210;-93
2022/01/06 08:22:30;;;;;;;3.60;3.40;;;3.50;99.90;;;;;;5052989;28;20241;-93
2022/01/06 08:24:56;;;;;;;3.73;3.43;;;3.50;99.90;;;;;;5052750;28;20565;-91
2022/01/06 08:27:23;;;;;;;3.90;3.50;;;3.60;99.90;;;;;;5052328;28;20189;-89
2022/01/06 08:29:51;;;;;;;3.50;3.30;;;3.70;99.90;;;;;;5054181;28;20196;-90
2022/01/06 08:32:17;;;;;;;5.23;3.80;;;3.80;99.90;;;;;;5051224;28;20223;-85
2022/01/06 08:34:43;;;;;;;3.80;3.50;;;3.80;99.90;;;;;;5033491;28;20179;-85
2022/01/06 08:37:09;;;;;;;3.60;3.40;;;3.90;99.90;;;;;;5033507;28;20214;-84
2022/01/06 08:39:35;;;;;;;3.97;3.50;;;3.90;99.90;;;;;;5051898;28;20183;-87
2022/01/06 08:42:01;;;;;;;3.80;3.50;;;4.00;99.90;;;;;;5052397;28;20205;-83
2022/01/06 08:44:27;;;;;;;3.63;3.43;;;4.00;99.90;;;;;;5033921;28;20661;-88
2022/01/06 08:46:53;;;;;;;3.77;3.57;;;4.10;99.90;;;;;;5052359;28;20193;-84
2022/01/06 08:49:19;;;;;;;3.60;3.40;;;4.10;99.90;;;;;;5038147;28;20215;-85
2022/01/06 08:51:45;;;;;;;3.63;3.43;;;4.20;99.90;;;;;;5055142;28;20206;-85
2022/01/06 08:54:11;;;;;;;3.77;3.53;;;4.30;99.90;;;;;;5055265;28;20658;-84
2022/01/06 08:56:38;;;;;;;6.07;5.53;;;4.40;99.90;;;;;;5056626;28;20181;-83
2022/01/06 08:59:04;;;;;;;4.37;4.07;;;4.40;99.90;;;;;;5051537;28;20179;-84
2022/01/06 09:01:31;;;;;;;4.40;4.10;;;4.50;99.90;;;;;;5053646;28;20179;-83
2022/01/06 09:03:58;;;;;;;4.30;3.97;;;4.60;99.90;;;;;;5054368;28;20170;-82
2022/01/06 09:06:24;;;;;;;4.47;4.07;;;4.60;99.90;;;;;;5052167;28;20202;-82
2022/01/06 09:08:50;;;;;;;4.40;4.10;;;4.70;99.90;;;;;;5051619;28;20176;-85
2022/01/06 09:11:16;;;;;;;3.97;3.77;;;4.70;99.90;;;;;;5051749;28;20678;-86
2022/01/06 09:13:42;;;;;;;5.87;4.47;;;4.90;99.90;;;;;;5052569;28;20206;-82
2022/01/06 09:16:08;;;;;;;4.37;4.07;;;4.90;99.90;;;;;;5058626;28;20180;-82
2022/01/06 09:18:38;;;;;;;4.70;3.80;;;4.80;99.90;;;;;;5053064;28;20229;-86
2022/01/06 09:21:05;;;;;;;3.90;3.60;;;4.80;99.90;;;;;;5051830;28;20214;-83
2022/01/06 09:23:31;;;;;;;5.30;3.83;;;4.80;99.90;;;;;;5051872;28;20176;-88
2022/01/06 09:25:57;;;;;;;4.23;3.93;;;4.80;99.90;;;;;;5034787;28;20597;-83
2022/01/06 09:28:23;;;;;;;3.77;3.47;;;4.80;99.90;;;;;;5054139;28;20168;-83
2022/01/06 09:30:51;;;;;;;3.87;3.57;;;4.90;99.90;;;;;;5051807;28;20651;-86
2022/01/06 09:33:20;;;;;;;4.17;3.80;;;4.90;99.90;;;;;;5051185;28;20277;-81
2022/01/06 09:35:47;;;;;;;4.33;4.00;;;4.90;99.90;;;;;;5072854;28;20217;-83
2022/01/06 09:38:15;;;;;;;4.03;3.63;;;4.90;99.90;;;;;;5073887;28;20186;-84
2022/01/06 09:40:42;;;;;;;4.37;4.00;;;4.90;99.90;;;;;;5075227;28;20172;-86
2022/01/06 09:43:11;;;;;;;5.43;3.70;;;4.90;99.90;;;;;;5086763;28;20173;-87
2022/01/06 09:45:38;;;;;;;4.90;4.00;;;4.70;99.90;;;;;;5088982;28;20167;-84
2022/01/06 09:48:05;;;;;;;4.33;3.70;;;4.60;99.90;;;;;;5086939;28;20184;-89
2022/01/06 09:50:31;;;;;;;5.80;3.97;;;4.50;99.90;;;;;;5076775;28;20183;-90
2022/01/06 09:52:57;;;;;;;4.40;4.07;;;4.50;99.90;;;;;;5086924;28;20207;-82
2022/01/06 09:55:23;;;;;;;4.60;4.20;;;4.50;99.90;;;;;;5089998;28;20171;-86
2022/01/06 09:58:09;;;;;;;4.60;4.20;;;4.40;99.90;;;;;;5093006;28;20200;-85
2022/01/06 10:00:35;;;;;;;4.30;3.97;;;4.40;99.90;;;;;;5078110;28;20577;-83
2022/01/06 10:03:06;;;;;;;4.50;4.10;;;4.50;99.90;;;;;;5094650;28;20191;-82
2022/01/06 10:05:43;;;;;;;5.87;4.20;;;4.40;99.90;;;;;;5079250;28;20163;-88
2022/01/06 10:08:10;;;;;;;4.00;3.70;;;4.40;99.90;;;;;;5081723;28;20182;-88
2022/01/06 10:10:36;;;;;;;5.83;3.80;;;4.40;99.90;;;;;;5059198;28;20189;-87
2022/01/06 10:13:07;;;;;;;4.43;4.03;;;4.40;99.90;;;;;;5079183;28;20198;-87
2022/01/06 10:15:37;;;;;;;5.27;4.20;;;4.40;99.90;;;;;;5080437;28;20159;-88
2022/01/06 10:18:16;;;;;;;4.30;4.00;;;4.40;99.90;;;;;;5073350;28;20670;-85
2022/01/06 10:20:48;;;;;;;5.10;4.23;;;4.30;99.90;;;;;;5073784;28;20164;-85
2022/01/06 10:23:16;;;;;;;4.07;3.73;;;4.40;99.90;;;;;;5074625;28;20606;-84
2022/01/06 10:25:52;;;;;;;4.97;4.47;;;4.40;99.90;;;;;;5072716;28;20634;-85
2022/01/06 10:28:20;;;;;;;5.87;5.37;;;4.50;99.90;;;;;;5055329;28;20178;-86
2022/01/06 10:30:49;;;;;;;5.20;4.80;;;4.50;99.90;;;;;;5055131;28;20213;-85
2022/01/06 10:33:33;;;;;;;5.03;4.53;;;4.50;99.90;;;;;;5061785;28;20289;-83
2022/01/06 10:36:06;;;;;;;4.70;4.30;;;4.60;99.90;;;;;;5082846;28;20240;-83
2022/01/06 10:38:31;;;;;;;5.00;4.60;;;4.60;99.90;;;;;;5082415;28;20275;-83
2022/01/06 10:41:15;;;;;;;4.70;4.20;;;4.60;99.90;;;;;;5078608;28;20641;-88
2022/01/06 10:43:41;;;;;;;4.40;4.10;;;4.50;99.90;;;;;;5077495;28;20177;-87
2022/01/06 10:46:08;;;;;;;5.10;4.60;;;4.50;99.90;;;;;;5077149;28;20254;-86
2022/01/06 10:48:34;;;;;;;4.40;4.10;;;4.40;99.90;;;;;;5076574;28;20515;-85
2022/01/06 10:51:01;;;;;;;4.70;4.30;;;4.40;99.90;;;;;;5077743;28;20171;-88
2022/01/06 10:53:28;;;;;;;4.50;4.20;;;4.40;99.90;;;;;;5076634;28;20205;-89
2022/01/06 10:55:54;;;;;;;4.40;4.00;;;4.40;99.90;;;;;;5059483;28;20214;-90
2022/01/06 10:58:25;;;;;;;4.40;4.00;;;4.40;99.90;;;;;;5061484;28;20178;-90
2022/01/06 11:01:00;;;;;;;4.17;3.80;;;4.50;99.90;;;;;;5077992;28;20614;-87
2022/01/06 11:03:29;;;;;;;4.03;3.73;;;4.40;99.90;;;;;;5057923;28;20305;-89
2022/01/06 11:05:59;;;;;;;5.20;4.07;;;4.50;99.90;;;;;;5076944;28;20181;-89
2022/01/06 11:08:27;;;;;;;4.13;3.83;;;4.50;99.90;;;;;;5076600;28;20177;-89
2022/01/06 11:11:15;;;;;;;4.97;3.90;;;4.50;99.90;;;;;;5075963;28;20175;-83
2022/01/06 11:13:46;;;;;;;4.17;3.87;;;4.60;99.90;;;;;;5057828;28;20211;-84
2022/01/06 11:16:15;;;;;;;3.70;3.40;;;4.60;99.90;;;;;;5057531;28;20646;-85
2022/01/06 11:18:43;;;;;;;3.90;3.60;;;4.70;99.90;;;;;;5075216;28;20194;-82
2022/01/06 11:21:18;;;;;;;3.83;3.53;;;4.70;99.90;;;;;;5075421;28;20194;-82
2022/01/06 11:23:44;;;;;;;3.70;3.40;;;4.60;99.90;;;;;;5057582;28;20175;-82
2022/01/06 11:26:18;;;;;;;3.53;3.27;;;4.70;99.90;;;;;;5075433;28;20663;-83
2022/01/06 11:28:54;;;;;;;3.77;3.47;;;4.70;99.90;;;;;;5075541;28;20220;-83
2022/01/06 11:31:22;;;;;;;3.70;3.40;;;4.80;99.90;;;;;;5075865;28;20148;-84
2022/01/06 11:33:51;;;;;;;3.67;3.37;;;4.90;99.90;;;;;;5075172;28;20624;-85
2022/01/06 11:36:25;;;;;;;3.93;3.57;;;4.90;99.90;;;;;;5075225;28;20167;-84
2022/01/06 11:38:52;;;;;;;3.17;2.87;;;5.00;99.90;;;;;;5074729;28;20186;-83
2022/01/06 11:41:18;;;;;;;3.63;2.87;;;5.00;99.90;;;;;;5057528;28;20199;-84
2022/01/06 11:43:46;;;;;;;2.80;2.60;;;5.00;99.90;;;;;;5075413;28;20615;-83
2022/01/06 11:46:13;;;;;;;2.53;2.40;;;5.00;99.90;;;;;;5075202;28;20521;-84
2022/01/06 11:48:51;;;;;;;3.60;2.10;;;5.10;99.90;;;;;;5057574;28;20637;-83
2022/01/06 11:51:37;;;;;;;2.27;2.17;;;5.20;99.90;;;;;;5077447;28;20172;-82
2022/01/06 11:54:17;;;;;;;2.20;2.00;;;5.30;99.90;;;;;;5079050;28;20203;-86
2022/01/06 11:56:48;;;;;;;3.37;2.00;;;5.50;99.90;;;;;;5089143;28;20173;-82
2022/01/06 11:59:15;;;;;;;2.50;2.30;;;5.60;99.90;;;;;;5075754;28;20170;-83
2022/01/06 12:01:49;;;;;;;2.00;1.90;;;5.60;99.90;;;;;;5075332;28;20176;-85
2022/01/06 12:04:22;;;;;;;3.10;2.40;;;5.60;99.90;;;;;;5074969;28;20278;-83
2022/01/06 12:06:49;;;;;;;5.20;4.70;;;5.60;99.90;;;;;;5074872;28;20153;-83
2022/01/06 12:09:19;;;;;;;3.30;3.10;;;5.70;99.90;;;;;;5074737;28;20212;-85
2022/01/06 12:11:46;;;;;;;2.37;2.20;;;5.80;99.90;;;;;;5074366;28;20206;-84
2022/01/06 12:14:22;;;;;;;2.90;2.57;;;5.80;99.90;;;;;;5056388;28;20173;-86
2022/01/06 12:16:48;;;;;;;2.00;1.90;;;5.90;99.90;;;;;;5074708;28;20173;-82
2022/01/06 12:19:19;;;;;;;2.60;1.80;;;5.90;99.90;;;;;;5077283;28;20192;-82
2022/01/06 12:21:45;;;;;;;2.20;2.00;;;6.00;99.90;;;;;;5081396;28;20621;-84
2022/01/06 12:24:13;;;;;;;2.40;2.20;;;6.00;99.90;;;;;;5085892;28;20658;-85
2022/01/06 12:26:40;;;;;;;3.83;1.80;;;6.00;99.90;;;;;;5077997;28;20183;-90
2022/01/06 12:29:19;;;;;;;2.40;2.20;;;6.00;99.90;;;;;;5075075;28;20184;-90
2022/01/06 12:31:45;;;;;;;1.87;1.77;;;6.00;99.90;;;;;;5074482;28;20172;-90
2022/01/06 12:34:13;;;;;;;1.90;1.80;;;5.90;99.90;;;;;;5056960;28;20577;-89
2022/01/06 12:36:43;;;;;;;1.83;1.73;;;5.90;99.90;;;;;;5074699;28;20176;-91
2022/01/06 12:39:19;;;;;;;1.73;1.67;;;6.00;99.90;;;;;;5075275;28;20268;-90
2022/01/06 12:41:46;;;;;;;2.10;1.80;;;6.00;99.90;;;;;;5077355;28;20165;-85
2022/01/06 12:44:18;;;;;;;1.60;1.60;;;6.00;99.50;;;;;;5074119;28;20178;-83
2022/01/06 12:46:44;;;;;;;4.10;1.70;;;6.00;99.10;;;;;;5056373;28;20506;-85
2022/01/06 12:49:11;;;;;;;3.73;2.30;;;6.00;99.00;;;;;;5074001;28;20169;-86
2022/01/06 12:51:45;;;;;;;3.00;2.23;;;6.10;98.90;;;;;;5073657;28;20173;-83
2022/01/06 12:54:13;;;;;;;3.27;1.50;;;6.10;99.00;;;;;;5074317;28;20245;-83
2022/01/06 12:56:51;;;;;;;0.90;0.90;;;6.20;97.30;;;;;;5054661;28;20167;-83
2022/01/06 12:59:49;;;;;;;1.10;1.10;;;6.30;93.90;;;;;;5073001;28;20180;-83
2022/01/06 13:02:15;;;;;;;0.50;0.50;;;6.40;92.30;;;;;;5073324;28;20191;-84
2022/01/06 13:04:48;;;;;;;0.73;0.73;;;6.40;91.80;;;;;;5055604;28;20171;-85
2022/01/06 13:07:16;;;;;;;0.70;0.70;;;6.40;91.40;;;;;;5073543;28;20173;-87